createdAt,value
2023-04-15T00:01:34.764Z,8.90
2023-04-15T00:04:01.956Z,8.90
2023-04-15T00:06:28.913Z,8.80
2023-04-15T00:08:55.800Z,8.80
2023-04-15T00:11:24.363Z,8.80
2023-04-15T00:13:51.226Z,8.80
2023-04-15T00:16:18.078Z,8.80
2023-04-15T00:18:44.907Z,8.70
2023-04-15T00:21:11.988Z,8.70
2023-04-15T00:23:38.728Z,8.70
2023-04-15T00:26:05.440Z,8.70
2023-04-15T00:28:32.343Z,8.60
2023-04-15T00:31:00.872Z,8.60
2023-04-15T00:33:27.917Z,8.60
2023-04-15T00:35:54.978Z,8.60
2023-04-15T00:38:21.603Z,8.60
2023-04-15T00:40:48.323Z,8.50
2023-04-15T00:43:15.107Z,8.50
2023-04-15T00:45:41.928Z,8.50
2023-04-15T00:48:10.237Z,8.40
2023-04-15T00:50:37.065Z,8.40
2023-04-15T00:53:04.292Z,8.40
2023-04-15T00:55:31.809Z,8.30
2023-04-15T00:57:58.729Z,8.30
2023-04-15T01:00:25.611Z,8.30
2023-04-15T01:02:53.167Z,8.20
2023-04-15T01:05:20.017Z,8.20
2023-04-15T01:07:47.184Z,8.20
2023-04-15T01:10:14.329Z,8.20
2023-04-15T01:12:43.286Z,8.10
2023-04-15T01:15:11.062Z,8.10
2023-04-15T01:17:39.557Z,8.10
2023-04-15T01:20:10.068Z,8.10
2023-04-15T01:22:38.302Z,8.00
2023-04-15T01:25:17.637Z,8.00
2023-04-15T01:27:45.621Z,8.00
2023-04-15T01:30:12.491Z,8.00
2023-04-15T01:32:39.306Z,7.90
2023-04-15T01:35:06.301Z,7.90
2023-04-15T01:37:33.423Z,7.90
2023-04-15T01:40:01.961Z,7.90
2023-04-15T01:42:28.925Z,7.90
2023-04-15T01:44:55.786Z,7.80
2023-04-15T01:47:22.679Z,7.80
2023-04-15T01:49:49.405Z,7.80
2023-04-15T01:52:16.150Z,7.70
2023-04-15T01:54:42.931Z,7.70
2023-04-15T01:57:09.900Z,7.70
2023-04-15T01:59:37.296Z,7.70
2023-04-15T02:02:04.689Z,7.70
2023-04-15T02:04:31.765Z,7.60
2023-04-15T02:07:00.642Z,7.50
2023-04-15T02:09:27.412Z,7.50
2023-04-15T02:11:54.345Z,7.50
2023-04-15T02:14:21.409Z,7.40
2023-04-15T02:16:48.345Z,7.40
2023-04-15T02:19:16.618Z,7.40
2023-04-15T02:21:43.523Z,7.30
2023-04-15T02:24:12.126Z,7.30
2023-04-15T02:26:41.419Z,7.30
2023-04-15T02:29:08.207Z,7.30
2023-04-15T02:31:40.224Z,7.30
2023-04-15T02:34:07.274Z,7.20
2023-04-15T02:36:34.637Z,7.20
2023-04-15T02:39:01.993Z,7.30
2023-04-15T02:41:30.468Z,7.20
2023-04-15T02:43:57.823Z,7.20
2023-04-15T02:46:24.576Z,7.20
2023-04-15T02:48:51.439Z,7.20
2023-04-15T02:51:22.547Z,7.20
2023-04-15T02:53:49.909Z,7.10
2023-04-15T02:56:17.327Z,7.20
2023-04-15T02:58:45.105Z,7.10
2023-04-15T03:01:12.156Z,7.10
2023-04-15T03:03:40.052Z,7.10
2023-04-15T03:06:06.981Z,7.10
2023-04-15T03:08:34.151Z,7.00
2023-04-15T03:11:04.254Z,7.00
2023-04-15T03:13:32.298Z,7.00
2023-04-15T03:16:03.026Z,7.00
2023-04-15T03:18:31.569Z,7.00
2023-04-15T03:21:03.150Z,7.00
2023-04-15T03:23:33.150Z,7.00
2023-04-15T03:26:03.437Z,7.00
2023-04-15T03:28:31.484Z,6.90
2023-04-15T03:30:59.388Z,7.00
2023-04-15T03:33:26.327Z,6.90
2023-04-15T03:35:53.137Z,6.90
2023-04-15T03:38:19.880Z,6.90
2023-04-15T03:40:46.815Z,6.90
2023-04-15T03:43:13.634Z,6.90
2023-04-15T03:45:40.640Z,6.80
2023-04-15T03:48:17.403Z,6.80
2023-04-15T03:50:45.339Z,6.80
2023-04-15T03:53:12.026Z,6.70
2023-04-15T03:55:38.767Z,6.70
2023-04-15T03:58:07.927Z,6.70
2023-04-15T04:00:34.833Z,6.70
2023-04-15T04:03:01.822Z,6.70
2023-04-15T04:05:28.830Z,6.70
2023-04-15T04:07:55.936Z,6.70
2023-04-15T04:10:22.797Z,6.70
2023-04-15T04:12:49.538Z,6.80
2023-04-15T04:15:16.562Z,6.80
2023-04-15T04:17:43.261Z,6.80
2023-04-15T04:20:10.411Z,6.80
2023-04-15T04:22:38.653Z,6.90
2023-04-15T04:25:05.748Z,6.90
2023-04-15T04:27:32.648Z,6.90
2023-04-15T04:29:59.537Z,6.90
2023-04-15T04:32:26.414Z,6.90
2023-04-15T04:34:53.319Z,6.90
2023-04-15T04:37:20.059Z,6.90
2023-04-15T04:39:46.934Z,6.90
2023-04-15T04:42:13.641Z,6.90
2023-04-15T04:44:40.568Z,6.80
2023-04-15T04:47:07.915Z,6.80
2023-04-15T04:49:34.994Z,6.80
2023-04-15T04:52:02.735Z,6.80
2023-04-15T04:54:31.457Z,6.90
2023-04-15T04:56:58.310Z,6.90
2023-04-15T04:59:25.459Z,6.90
2023-04-15T05:01:52.787Z,7.00
2023-04-15T05:04:19.827Z,7.00
2023-04-15T05:06:46.823Z,6.90
2023-04-15T05:09:14.037Z,6.90
2023-04-15T05:11:40.754Z,7.00
2023-04-15T05:14:07.657Z,7.00
2023-04-15T05:16:34.445Z,7.00
2023-04-15T05:19:01.803Z,7.10
2023-04-15T05:21:29.054Z,7.20
2023-04-15T05:23:56.378Z,7.20
2023-04-15T05:26:24.217Z,7.20
2023-04-15T05:28:50.976Z,7.30
2023-04-15T05:31:17.687Z,7.30
2023-04-15T05:33:44.893Z,7.40
2023-04-15T05:36:12.100Z,7.40
2023-04-15T05:38:39.216Z,7.50
2023-04-15T05:41:07.209Z,7.50
2023-04-15T05:43:34.622Z,7.50
2023-04-15T05:46:01.954Z,7.60
2023-04-15T05:48:29.204Z,7.60
2023-04-15T05:50:56.242Z,7.60
2023-04-15T05:53:23.060Z,7.60
2023-04-15T05:55:49.820Z,7.70
2023-04-15T05:58:16.617Z,7.70
2023-04-15T06:00:43.988Z,7.80
2023-04-15T06:03:11.989Z,7.80
2023-04-15T06:05:38.914Z,7.90
2023-04-15T06:08:05.878Z,8.00
2023-04-15T06:10:36.815Z,8.00
2023-04-15T06:13:04.288Z,8.00
2023-04-15T06:15:31.691Z,8.00
2023-04-15T06:17:59.296Z,8.10
2023-04-15T06:20:26.145Z,8.10
2023-04-15T06:22:53.368Z,8.20
2023-04-15T06:25:19.988Z,8.20
2023-04-15T06:27:46.858Z,8.20
2023-04-15T06:30:13.530Z,8.20
2023-04-15T06:32:40.366Z,8.10
2023-04-15T06:35:07.135Z,8.10
2023-04-15T06:37:33.952Z,8.10
2023-04-15T06:40:00.600Z,8.00
2023-04-15T06:42:27.394Z,8.00
2023-04-15T06:44:54.024Z,8.10
2023-04-15T06:47:20.967Z,8.10
2023-04-15T06:49:47.734Z,8.20
2023-04-15T06:52:14.577Z,8.20
2023-04-15T06:54:41.244Z,8.30
2023-04-15T06:57:09.359Z,8.40
2023-04-15T06:59:36.193Z,8.50
2023-04-15T07:02:03.055Z,8.40
2023-04-15T07:04:30.019Z,8.50
2023-04-15T07:06:56.852Z,8.50
2023-04-15T07:09:23.554Z,8.50
2023-04-15T07:11:50.351Z,8.50
2023-04-15T07:14:20.842Z,8.50
2023-04-15T07:16:47.822Z,8.60
2023-04-15T07:19:14.763Z,8.60
2023-04-15T07:21:42.310Z,8.70
2023-04-15T07:24:10.376Z,8.70
2023-04-15T07:26:39.622Z,8.80
2023-04-15T07:29:06.469Z,8.90
2023-04-15T07:31:33.955Z,9.10
2023-04-15T07:34:01.136Z,9.10
2023-04-15T07:36:29.322Z,9.20
2023-04-15T07:38:56.040Z,9.30
2023-04-15T07:41:23.149Z,9.40
2023-04-15T07:43:50.227Z,9.40
2023-04-15T07:46:17.108Z,9.50
2023-04-15T07:48:43.875Z,9.60
2023-04-15T07:51:10.833Z,9.60
2023-04-15T07:53:38.141Z,9.60
2023-04-15T07:56:05.651Z,9.60
2023-04-15T07:58:32.412Z,9.80
2023-04-15T08:00:59.132Z,9.80
2023-04-15T08:03:26.243Z,9.80
2023-04-15T08:05:53.101Z,9.80
2023-04-15T08:08:19.778Z,9.80
2023-04-15T08:10:46.707Z,9.70
2023-04-15T08:13:13.451Z,9.80
2023-04-15T08:15:40.339Z,9.90
2023-04-15T08:18:07.263Z,10.00
2023-04-15T08:20:34.082Z,10.00
2023-04-15T08:23:00.916Z,10.00
2023-04-15T08:25:27.676Z,10.10
2023-04-15T08:27:55.640Z,10.00
2023-04-15T08:30:22.325Z,10.00
2023-04-15T08:32:51.499Z,10.00
2023-04-15T08:35:18.773Z,9.90
2023-04-15T08:37:45.522Z,10.00
2023-04-15T08:40:12.780Z,10.00
2023-04-15T08:42:45.005Z,10.00
2023-04-15T08:45:12.223Z,10.00
2023-04-15T08:47:39.972Z,10.00
2023-04-15T08:50:09.120Z,10.00
2023-04-15T08:52:36.329Z,10.00
2023-04-15T08:55:03.500Z,9.90
2023-04-15T08:57:31.265Z,9.90
2023-04-15T08:59:58.426Z,9.90
2023-04-15T09:02:27.154Z,10.00
2023-04-15T09:04:54.271Z,10.00
2023-04-15T09:07:21.226Z,9.90
2023-04-15T09:09:48.451Z,9.90
2023-04-15T09:12:16.967Z,10.00
2023-04-15T09:14:45.725Z,10.00
2023-04-15T09:17:12.585Z,10.00
2023-04-15T09:19:41.440Z,10.00
2023-04-15T09:22:08.136Z,9.90
2023-04-15T09:24:39.171Z,9.90
2023-04-15T09:27:06.396Z,9.90
2023-04-15T09:29:33.140Z,9.70
2023-04-15T09:32:12.972Z,9.70
2023-04-15T09:34:39.762Z,9.70
2023-04-15T09:37:08.070Z,9.70
2023-04-15T09:39:47.933Z,9.60
2023-04-15T09:42:17.774Z,9.60
2023-04-15T09:44:44.744Z,9.60
2023-04-15T09:47:26.639Z,9.60
2023-04-15T09:49:57.570Z,9.60
2023-04-15T09:52:24.386Z,9.60
2023-04-15T09:54:53.097Z,9.70
2023-04-15T09:57:22.857Z,9.70
2023-04-15T09:59:49.932Z,9.60
2023-04-15T10:02:18.558Z,9.60
2023-04-15T10:04:45.406Z,9.60
2023-04-15T10:07:12.534Z,9.60
2023-04-15T10:09:39.692Z,9.50
2023-04-15T10:12:06.630Z,9.60
2023-04-15T10:14:34.991Z,9.60
2023-04-15T10:17:02.673Z,9.70
2023-04-15T10:19:31.675Z,9.70
2023-04-15T10:22:01.997Z,9.70
2023-04-15T10:24:30.630Z,9.70
2023-04-15T10:26:58.822Z,9.80
2023-04-15T10:29:27.319Z,9.80
2023-04-15T10:31:59.023Z,9.70
2023-04-15T10:34:26.287Z,9.60
2023-04-15T10:36:57.597Z,9.60
2023-04-15T10:39:34.218Z,9.50
2023-04-15T10:42:08.277Z,9.50
2023-04-15T10:44:41.578Z,9.40
2023-04-15T10:47:13.692Z,9.40
2023-04-15T10:49:47.796Z,9.30
2023-04-15T10:52:14.910Z,9.40
2023-04-15T10:54:41.692Z,9.40
2023-04-15T10:57:10.537Z,9.40
2023-04-15T11:00:07.022Z,9.40
2023-04-15T11:02:41.558Z,9.30
2023-04-15T11:05:09.068Z,9.30
2023-04-15T11:07:40.628Z,9.30
2023-04-15T11:10:13.420Z,9.40
2023-04-15T11:12:41.409Z,9.40
2023-04-15T11:15:27.067Z,9.40
2023-04-15T11:17:53.883Z,9.30
2023-04-15T11:20:21.173Z,9.30
2023-04-15T11:22:51.690Z,9.30
2023-04-15T11:25:28.653Z,9.30
2023-04-15T11:27:55.948Z,9.30
2023-04-15T11:30:24.245Z,9.30
2023-04-15T11:32:51.644Z,9.40
2023-04-15T11:35:18.908Z,9.40
2023-04-15T11:37:46.447Z,9.40
2023-04-15T11:40:13.686Z,9.40
2023-04-15T11:42:49.611Z,9.40
2023-04-15T11:45:16.880Z,9.50
2023-04-15T11:47:43.731Z,9.50
2023-04-15T11:50:21.206Z,9.50
2023-04-15T11:52:55.263Z,9.50
2023-04-15T11:55:23.826Z,9.50
2023-04-15T11:57:51.404Z,9.50
2023-04-15T12:00:20.305Z,9.40
2023-04-15T12:02:47.391Z,9.40
2023-04-15T12:05:14.428Z,9.40
2023-04-15T12:08:07.703Z,9.50
2023-04-15T12:10:34.334Z,9.50
2023-04-15T12:13:01.094Z,9.50
2023-04-15T12:15:27.929Z,9.50
2023-04-15T12:17:55.572Z,9.60
2023-04-15T12:20:26.368Z,9.60
2023-04-15T12:22:53.524Z,9.50
2023-04-15T12:25:32.751Z,9.60
2023-04-15T12:27:59.562Z,9.50
2023-04-15T12:30:26.796Z,9.60
2023-04-15T12:32:54.300Z,9.60
2023-04-15T12:35:21.579Z,9.60
2023-04-15T12:37:48.493Z,9.60
2023-04-15T12:40:15.405Z,9.60
2023-04-15T12:42:42.215Z,9.60
2023-04-15T12:45:09.795Z,9.60
2023-04-15T12:47:41.428Z,9.70
2023-04-15T12:50:08.869Z,9.60
2023-04-15T12:52:35.737Z,9.70
2023-04-15T12:55:02.756Z,9.70
2023-04-15T12:57:29.445Z,9.80
2023-04-15T12:59:56.183Z,9.90
2023-04-15T13:02:25.686Z,9.90
2023-04-15T13:04:52.939Z,9.90
2023-04-15T13:07:19.874Z,9.90
2023-04-15T13:09:46.846Z,9.90
2023-04-15T13:12:14.454Z,10.00
2023-04-15T13:14:41.411Z,9.90
2023-04-15T13:17:10.231Z,9.90
2023-04-15T13:19:37.202Z,10.00
2023-04-15T13:22:03.961Z,10.00
2023-04-15T13:24:30.700Z,10.00
2023-04-15T13:26:59.206Z,10.00
2023-04-15T13:29:26.023Z,10.00
2023-04-15T13:31:52.716Z,10.00
2023-04-15T13:34:19.555Z,9.90
2023-04-15T13:36:46.887Z,9.90
2023-04-15T13:39:13.634Z,9.90
2023-04-15T13:41:40.469Z,9.90
2023-04-15T13:44:08.078Z,9.90
2023-04-15T13:46:34.970Z,9.90
2023-04-15T13:49:01.829Z,9.90
2023-04-15T13:51:28.863Z,9.80
2023-04-15T13:53:55.806Z,9.80
2023-04-15T13:56:22.662Z,9.80
2023-04-15T13:58:49.757Z,9.80
2023-04-15T14:01:16.720Z,9.90
2023-04-15T14:03:43.770Z,9.90
2023-04-15T14:06:10.915Z,9.80
2023-04-15T14:08:38.197Z,9.80
2023-04-15T14:11:05.003Z,9.80
2023-04-15T14:13:31.764Z,9.70
2023-04-15T14:15:58.622Z,9.60
2023-04-15T14:18:25.542Z,9.60
2023-04-15T14:20:52.519Z,9.60
2023-04-15T14:23:19.604Z,9.60
2023-04-15T14:25:48.152Z,9.60
2023-04-15T14:28:16.042Z,9.60
2023-04-15T14:30:43.116Z,9.50
2023-04-15T14:33:10.541Z,9.50
2023-04-15T14:35:38.125Z,9.40
2023-04-15T14:38:06.059Z,9.40
2023-04-15T14:40:33.445Z,9.40
2023-04-15T14:43:00.297Z,9.40
2023-04-15T14:45:27.022Z,9.40
2023-04-15T14:47:53.923Z,9.40
2023-04-15T14:50:20.989Z,9.40
2023-04-15T14:52:47.912Z,9.40
2023-04-15T14:55:14.693Z,9.50
2023-04-15T14:57:42.906Z,9.50
2023-04-15T15:00:10.440Z,9.50
2023-04-15T15:02:40.212Z,9.50
2023-04-15T15:05:08.090Z,9.50
2023-04-15T15:07:37.291Z,9.50
2023-04-15T15:10:04.715Z,9.40
2023-04-15T15:12:32.218Z,9.40
2023-04-15T15:14:59.243Z,9.40
2023-04-15T15:17:26.511Z,9.50
2023-04-15T15:19:53.292Z,9.50
2023-04-15T15:22:21.442Z,9.40
2023-04-15T15:24:48.531Z,9.40
2023-04-15T15:27:15.518Z,9.40
2023-04-15T15:29:42.404Z,9.40
2023-04-15T15:32:09.201Z,9.40
2023-04-15T15:34:35.971Z,9.40
2023-04-15T15:37:02.811Z,9.40
2023-04-15T15:39:29.596Z,9.30
2023-04-15T15:41:56.310Z,9.40
2023-04-15T15:44:23.060Z,9.30
2023-04-15T15:46:50.455Z,9.30
2023-04-15T15:49:17.355Z,9.30
2023-04-15T15:51:44.578Z,9.30
2023-04-15T15:54:11.348Z,9.30
2023-04-15T15:56:39.482Z,9.20
2023-04-15T15:59:06.580Z,9.20
2023-04-15T16:01:33.690Z,9.20
2023-04-15T16:04:01.284Z,9.20
2023-04-15T16:06:28.683Z,9.20
2023-04-15T16:08:55.607Z,9.20
2023-04-15T16:11:22.894Z,9.30
2023-04-15T16:13:49.729Z,9.20
2023-04-15T16:16:16.365Z,9.20
2023-04-15T16:18:43.032Z,9.20
2023-04-15T16:21:12.978Z,9.20
2023-04-15T16:23:40.552Z,9.20
2023-04-15T16:26:07.221Z,9.20
2023-04-15T16:28:33.845Z,9.10
2023-04-15T16:31:00.656Z,9.10
2023-04-15T16:33:27.298Z,9.10
2023-04-15T16:35:54.267Z,9.10
2023-04-15T16:38:21.033Z,9.00
2023-04-15T16:40:47.800Z,9.00
2023-04-15T16:43:14.519Z,9.00
2023-04-15T16:45:41.578Z,9.00
2023-04-15T16:48:08.222Z,9.10
2023-04-15T16:50:36.064Z,9.10
2023-04-15T16:53:03.505Z,9.10
2023-04-15T16:55:30.286Z,9.20
2023-04-15T16:58:01.819Z,9.10
2023-04-15T17:00:31.115Z,9.10
2023-04-15T17:02:58.204Z,9.10
2023-04-15T17:05:27.116Z,9.00
2023-04-15T17:07:53.841Z,9.00
2023-04-15T17:10:20.795Z,9.00
2023-04-15T17:12:47.495Z,8.90
2023-04-15T17:15:14.165Z,8.90
2023-04-15T17:17:41.088Z,8.90
2023-04-15T17:20:08.044Z,8.90
2023-04-15T17:22:34.877Z,8.80
2023-04-15T17:25:01.667Z,8.80
2023-04-15T17:27:28.820Z,8.90
2023-04-15T17:29:56.123Z,8.80
2023-04-15T17:32:23.255Z,8.90
2023-04-15T17:34:51.361Z,8.90
2023-04-15T17:37:18.578Z,8.80
2023-04-15T17:39:47.906Z,8.90
2023-04-15T17:42:14.868Z,8.80
2023-04-15T17:44:41.584Z,8.90
2023-04-15T17:47:08.239Z,8.90
2023-04-15T17:49:37.596Z,8.90
2023-04-15T17:52:04.603Z,8.90
2023-04-15T17:54:31.517Z,8.90
2023-04-15T17:56:59.197Z,8.80
2023-04-15T17:59:26.226Z,8.90
2023-04-15T18:01:52.982Z,8.80
2023-04-15T18:04:20.142Z,8.90
2023-04-15T18:06:47.261Z,8.90
2023-04-15T18:09:14.093Z,8.90
2023-04-15T18:11:40.930Z,8.90
2023-04-15T18:14:07.908Z,8.80
2023-04-15T18:16:34.723Z,8.80
2023-04-15T18:19:01.742Z,8.80
2023-04-15T18:21:29.694Z,8.90
2023-04-15T18:23:56.960Z,8.90
2023-04-15T18:26:23.667Z,8.90
2023-04-15T18:28:50.845Z,8.90
2023-04-15T18:31:18.605Z,8.90
2023-04-15T18:33:45.305Z,8.80
2023-04-15T18:36:12.042Z,8.80
2023-04-15T18:38:38.955Z,8.80
2023-04-15T18:41:05.863Z,8.70
2023-04-15T18:43:33.325Z,8.80
2023-04-15T18:46:01.752Z,8.80
2023-04-15T18:48:28.624Z,8.80
2023-04-15T18:50:58.317Z,8.80
2023-04-15T18:53:25.273Z,8.90
2023-04-15T18:55:51.910Z,8.90
2023-04-15T18:58:19.132Z,8.90
2023-04-15T19:00:45.839Z,8.90
2023-04-15T19:03:12.687Z,8.80
2023-04-15T19:05:40.011Z,8.80
2023-04-15T19:08:07.425Z,8.80
2023-04-15T19:10:34.516Z,8.80
2023-04-15T19:13:01.270Z,8.90
2023-04-15T19:15:28.643Z,8.80
2023-04-15T19:17:55.547Z,8.80
2023-04-15T19:20:22.607Z,8.90
2023-04-15T19:22:50.684Z,8.80
2023-04-15T19:25:17.379Z,8.80
2023-04-15T19:27:44.021Z,8.80
2023-04-15T19:30:10.765Z,8.90
2023-04-15T19:32:37.422Z,8.80
2023-04-15T19:35:04.374Z,8.80
2023-04-15T19:37:31.050Z,8.80
2023-04-15T19:39:57.759Z,8.80
2023-04-15T19:42:24.453Z,8.80
2023-04-15T19:44:51.093Z,8.80
2023-04-15T19:47:18.090Z,8.80
2023-04-15T19:49:44.721Z,8.80
2023-04-15T19:52:14.408Z,8.80
2023-04-15T19:54:41.259Z,8.80
2023-04-15T19:57:07.898Z,8.90
2023-04-15T19:59:34.527Z,8.90
2023-04-15T20:02:02.280Z,8.90
2023-04-15T20:04:29.103Z,8.80
2023-04-15T20:06:56.061Z,8.80
2023-04-15T20:09:22.804Z,8.80
2023-04-15T20:12:05.650Z,8.90
2023-04-15T20:14:36.371Z,8.90
2023-04-15T20:17:02.976Z,8.90
2023-04-15T20:19:29.564Z,8.80
2023-04-15T20:21:56.205Z,8.80
2023-04-15T20:24:24.164Z,8.80
2023-04-15T20:26:50.951Z,8.80
2023-04-15T20:29:18.021Z,8.80
2023-04-15T20:31:44.871Z,8.80
2023-04-15T20:34:12.225Z,8.80
2023-04-15T20:36:39.175Z,8.80
2023-04-15T20:39:06.126Z,8.80
2023-04-15T20:41:32.889Z,8.80
2023-04-15T20:43:59.842Z,8.70
2023-04-15T20:46:27.668Z,8.70
2023-04-15T20:48:55.575Z,8.80
2023-04-15T20:51:22.225Z,8.80
2023-04-15T20:53:49.656Z,8.80
2023-04-15T20:56:16.466Z,8.80
2023-04-15T20:58:43.365Z,8.80
2023-04-15T21:01:10.355Z,8.80
2023-04-15T21:03:37.231Z,8.80
2023-04-15T21:06:04.181Z,8.80
2023-04-15T21:08:31.442Z,8.80
2023-04-15T21:10:58.125Z,8.80
2023-04-15T21:13:24.950Z,8.80
2023-04-15T21:15:53.900Z,8.80
2023-04-15T21:18:21.123Z,8.80
2023-04-15T21:20:55.768Z,8.80
2023-04-15T21:23:22.511Z,8.80
2023-04-15T21:25:49.166Z,8.80
2023-04-15T21:28:15.850Z,8.80
2023-04-15T21:30:42.594Z,8.80
2023-04-15T21:33:09.663Z,8.80
2023-04-15T21:35:36.599Z,8.80
2023-04-15T21:38:05.774Z,8.80
2023-04-15T21:40:32.450Z,8.80
2023-04-15T21:42:59.216Z,8.80
2023-04-15T21:45:26.298Z,8.80
2023-04-15T21:47:57.391Z,8.80
2023-04-15T21:50:33.815Z,8.80
2023-04-15T21:53:00.633Z,8.80
2023-04-15T21:55:27.400Z,8.80
2023-04-15T21:57:54.037Z,8.80
2023-04-15T22:00:22.435Z,8.80
2023-04-15T22:02:49.416Z,8.80
2023-04-15T22:05:16.595Z,8.80
2023-04-15T22:07:43.925Z,8.80
2023-04-15T22:10:10.815Z,8.80
2023-04-15T22:12:37.540Z,8.80
2023-04-15T22:15:04.457Z,8.80
2023-04-15T22:17:31.364Z,8.80
2023-04-15T22:19:58.391Z,8.80
2023-04-15T22:22:43.212Z,8.80
2023-04-15T22:25:11.454Z,8.80
2023-04-15T22:27:38.177Z,8.90
2023-04-15T22:30:06.359Z,8.80
2023-04-15T22:32:35.386Z,8.80
2023-04-15T22:35:02.622Z,8.80
2023-04-15T22:37:31.121Z,8.80
2023-04-15T22:39:57.947Z,8.70
2023-04-15T22:42:24.900Z,8.70
2023-04-15T22:44:51.539Z,8.80
2023-04-15T22:47:18.985Z,8.80
2023-04-15T22:49:45.952Z,8.80
2023-04-15T22:52:23.346Z,8.80
2023-04-15T22:54:54.486Z,8.80
2023-04-15T22:57:21.375Z,8.80
2023-04-15T22:59:48.484Z,8.80
2023-04-15T23:02:15.308Z,8.80
2023-04-15T23:04:42.493Z,8.80
2023-04-15T23:07:09.242Z,8.80
2023-04-15T23:09:36.131Z,8.80
2023-04-15T23:12:03.474Z,8.80
2023-04-15T23:14:30.770Z,8.80
2023-04-15T23:16:57.965Z,8.80
2023-04-15T23:19:24.800Z,8.90
2023-04-15T23:21:51.431Z,8.90
2023-04-15T23:24:18.478Z,8.90
2023-04-15T23:26:45.188Z,8.80
2023-04-15T23:29:11.931Z,8.90
2023-04-15T23:31:38.908Z,8.90
2023-04-15T23:34:06.435Z,8.90
2023-04-15T23:36:33.174Z,8.90
2023-04-15T23:38:59.948Z,8.90
2023-04-15T23:41:26.989Z,8.90
2023-04-15T23:43:53.810Z,9.00
2023-04-15T23:46:20.607Z,9.00
2023-04-15T23:48:48.964Z,9.00
2023-04-15T23:51:18.908Z,9.00
2023-04-15T23:53:47.195Z,9.00
2023-04-15T23:56:13.873Z,9.00
2023-04-15T23:58:40.688Z,8.90
